Mountain Home, ID (83647)

12:03 AM MDT on March 23, 2017 (GMT -0600)
Cox Signs - Airbase Road | | Change Station
Active Advisory: Flood Warning

Elev 3137 ft 43.13 °N, 115.71 °W | Updated 24 seconds ago

Mostly Cloudy
Mostly Cloudy
46.0 °F
Feels Like 41 °F
N
11.4
Wind Variable Wind from WNW

Today
High -- | Low -- °F
--% Chance of Precip.
Yesterday
High -- | Low -- °F
Precip. -- in
Pressure 29.88 in
Visibility 10.0 miles
Clouds Scattered Clouds 10000 ft
Windchill 41 °F
Dew Point 38 °F
Humidity 74%
Rainfall 0.00 in
Snow Depth Not available.
7:40 AM 7:59 PM
Waning Crescent, 26% visible
METAR KMUO 230558Z AUTO 32011KT 10SM SCT100 09/05 A2989 RMK AO2 SLP118 T00860054 10151 20086 52015 $
Pressure 29.88 in
Visibility 10.0 miles
Clouds Scattered Clouds 10000 ft
Windchill 41 °F
Dew Point 38 °F
Humidity 74%
Rainfall 0.00 in
Snow Depth Not available.
7:40 AM 7:59 PM
Waning Crescent, 26% visible
METAR KMUO 230558Z AUTO 32011KT 10SM SCT100 09/05 A2989 RMK AO2 SLP118 T00860054 10151 20086 52015 $

Get Your Daily Forecast Email!

Thanks for signing up!

Be on the lookout for a verification email in your inbox.

You'll start receiving severe weather alerts in your inbox..

×

10-Day Weather Forecast

Almanac

Astronomy

Mar. 23, 2017 Rise Set
Actual Time
Civil Twilight
Nautical Twilight
Astronomical Twilight
Moon
Length of Visible Light
Length of Day
Tomorrow will be .
, % of the Moon is Illuminated

Today's Extremes

State Highs State Lows

Community

WunderPhotos

Upload Photos

1,962,540 photos uploaded!

WunderBlog® & News

Nearby

Air Quality

  Air Quality AQ Index Pollutant
Not available.

Snow Depth

Station Depth Elevation

Earthquake Activity

City Distance Mag. Time & Date
Minimum magnitude displayed is 2.5.

Earthquake Activity

City Distance Mag. Time & Date
Minimum magnitude displayed is 2.5.

Coastal Water Temperatures

Place Temperature

Stations

Nearby Weather Stations

Station Location Temp. Windchill Dew Point Humidity Wind Precip. Elev Updated Type
                   

Watches & Warnings

Flood Warning
Issued: 4:52 PM MDT Mar. 22, 2017 – National Weather Service

The Flood Warning continues for
the Boise river at Glenwood bridge.
* Until further notice... or until the warning is cancelled.
* At 3:45 PM Wednesday the flow was 7810 cfs.
* Minor flooding is occurring and minor flooding is forecast.
* Flood stage is 7000 cfs.
* Forecast... the river will continue to fall to a stage of 7760 cfs
by tomorrow morning.



Lat... Lon 4366 11610 4353 11613 4374 11702 4386 11699